Etusivu
METAR-TAF:

METAR-TAF

Lentoasemat :

Öljynporauslautta

Norne Fpso, Norja

Leveyspiiri: 66-01-48N, Pituuspiiri: 008-04-48E, korkeus merenpinnasta: 10 m

Tämänhetkinen sää

Tämä raportti tehtiin 28 minuuttia sitten, kello 20.50 UTC
Tuuli 23 kn idästä/kaakosta
Lämpötila 9°C
Kosteus 76%
Ilmanpaine 1018 hPa
Näkyvyys 10 km tai enemmän

METAR: ENNE 242050Z AUTO 11023KT 9999NDV NCD 09/05 Q1018 W///S3

Aika: 23:18 (21:18 UTC)

Sääennuste

Tämä raportti tehtiin 10 tuntia ja 18 minuuttia sitten, kello 11.00 UTC
Ennuste voimassa 24. päivästä klo 12 UTC - 24. päivään klo 17 UTC
Tuuli 20 kn idästä
Näkyvyys 10 km tai enemmän
ei pilviä alle 1500 m:ssä eikä cumulonimbus-pilviä

TAF: ENNE 241100Z 2412/2417 09020KT CAVOK

Säähavainnot ja -ennusteet yli 4000 lentoasemalta (METAR- ja TAF-raportit).

Käytössä olevat sääasemat on merkitty karttaan keltaisilla ja punaisilla pisteillä.

Aseta hiiri pisteen päälle nähdäksesi sääaseman nimen.

Klikkaa sitten nähdäksesi säähavainnot ja -ennusteet.

Kartan vaihtaminen: klikkaa mustalla rastilla varustettuja vihreitä pisteitä, niin voit zoomata sisään; viivalla varustettua vihreää pistettä, niin voit zoomata ulos tai vihreitä nuolia, niin pääset viereisille kartoille.


METAR-TAF: